Time;durP1;ratioP1;P1;durP2;ratioP2;P2;SDS_P1;SDS_P2;PMS_P1;PMS_P2;Temp;Humidity;BMP_temperature;BMP_pressure;BME280_temperature;BME280_humidity;BME280_pressure;Samples;Min_cycle;Max_cycle;Signal;HPM_P1;HPM_P2
2022/06/16 00:01:46;;;;;;;27.23;14.70;;;;;;;34.51;49.43;101050.28;5090911;28;20814;-74
2022/06/16 00:04:12;;;;;;;25.97;15.03;;;;;;;34.18;49.91;101037.19;5091027;28;20436;-73
2022/06/16 00:06:38;;;;;;;21.20;13.70;;;;;;;34.26;49.90;101040.41;5091033;28;20429;-73
2022/06/16 00:09:05;;;;;;;21.23;13.20;;;;;;;34.25;50.00;101034.19;5092522;28;20453;-74
2022/06/16 00:11:31;;;;;;;21.27;12.10;;;;;;;34.33;49.80;101032.81;5091104;28;20928;-74
2022/06/16 00:13:58;;;;;;;22.73;14.97;;;;;;;34.20;49.70;101036.94;5090889;28;20529;-73
2022/06/16 00:16:24;;;;;;;21.37;14.27;;;;;;;33.87;50.02;101039.16;5090894;28;20429;-73
2022/06/16 00:18:50;;;;;;;24.43;14.00;;;;;;;33.55;51.20;101033.31;5090837;28;20421;-74
2022/06/16 00:21:17;;;;;;;17.20;11.33;;;;;;;33.46;51.50;101037.63;5090659;28;20973;-73
2022/06/16 00:23:44;;;;;;;18.63;11.10;;;;;;;33.09;51.89;101039.50;5092456;28;20420;-73
2022/06/16 00:26:12;;;;;;;18.23;11.90;;;;;;;33.32;51.86;101043.50;5090971;28;20452;-73
2022/06/16 00:28:40;;;;;;;25.43;11.80;;;;;;;33.52;51.31;101042.75;5090792;28;20428;-73
2022/06/16 00:31:07;;;;;;;20.47;14.50;;;;;;;33.84;50.34;101047.78;5090809;28;20471;-73
2022/06/16 00:33:34;;;;;;;15.57;11.47;;;;;;;33.84;50.11;101042.41;5090540;28;20457;-74
2022/06/16 00:36:00;;;;;;;13.63;9.50;;;;;;;33.85;49.98;101044.00;5090831;28;20515;-73
2022/06/16 00:38:26;;;;;;;15.80;8.33;;;;;;;33.71;49.69;101034.09;5090435;28;20471;-73
2022/06/16 00:40:52;;;;;;;19.23;10.60;;;;;;;33.53;50.21;101033.59;5090803;28;20416;-73
2022/06/16 00:43:19;;;;;;;10.17;7.97;;;;;;;33.42;50.06;101027.41;5090467;28;20463;-73
2022/06/16 00:45:56;;;;;;;14.63;8.03;;;;;;;33.46;49.68;101022.31;5090674;28;20420;-73
2022/06/16 00:48:49;;;;;;;13.93;6.60;;;;;;;33.49;50.12;101018.25;5091788;28;20444;-73
2022/06/16 00:51:37;;;;;;;14.93;7.10;;;;;;;33.34;50.19;101017.19;5090676;28;20424;-73
2022/06/16 00:54:20;;;;;;;12.17;7.90;;;;;;;33.31;50.03;101015.00;5090557;28;20460;-73
2022/06/16 00:56:49;;;;;;;9.23;5.97;;;;;;;33.45;49.65;101014.50;5090379;28;20436;-73
2022/06/16 00:59:15;;;;;;;12.20;7.23;;;;;;;33.54;49.33;101011.00;5090523;28;20525;-73
2022/06/16 01:01:44;;;;;;;12.20;5.93;;;;;;;33.71;49.47;101009.88;5092053;28;20421;-74
2022/06/16 01:06:57;;;;;;;14.23;8.07;;;;;;;33.62;49.21;101010.44;5095302;28;20448;-72
2022/06/16 01:09:28;;;;;;;18.57;11.00;;;;;;;33.28;49.70;101017.47;5093886;28;20437;-72
2022/06/16 01:15:18;;;;;;;24.83;10.93;;;;;;;33.29;50.17;101029.81;5095518;28;20464;-73
2022/06/16 01:18:02;;;;;;;14.27;7.97;;;;;;;33.49;49.96;101024.44;5093600;28;20948;-73
2022/06/16 01:20:38;;;;;;;19.17;8.67;;;;;;;33.48;49.86;101005.91;5094156;28;20420;-73
2022/06/16 01:23:36;;;;;;;14.47;8.63;;;;;;;33.60;49.73;100998.34;5093675;28;20424;-73
2022/06/16 01:26:21;;;;;;;11.83;8.00;;;;;;;33.40;50.21;100993.81;5093731;28;20425;-73
2022/06/16 01:29:23;;;;;;;16.67;10.43;;;;;;;33.37;50.28;100978.19;5091761;28;20424;-73
2022/06/16 01:32:09;;;;;;;13.13;8.93;;;;;;;33.29;51.00;100973.38;5093482;28;21023;-73
2022/06/16 01:34:42;;;;;;;18.67;10.27;;;;;;;33.38;50.48;100975.22;5093444;28;20452;-74
2022/06/16 01:37:08;;;;;;;12.83;8.47;;;;;;;33.25;51.20;100975.78;5093587;28;20425;-73
2022/06/16 01:39:55;;;;;;;18.93;9.50;;;;;;;33.14;51.57;100987.59;5093348;28;20633;-73
2022/06/16 01:42:30;;;;;;;23.13;8.87;;;;;;;33.20;51.52;100989.22;5081635;28;20429;-73
2022/06/16 01:45:23;;;;;;;17.43;9.93;;;;;;;33.19;51.02;100992.19;5093266;28;20511;-73
2022/06/16 01:47:51;;;;;;;15.43;10.00;;;;;;;33.33;50.98;100988.69;5066496;28;20421;-73
2022/06/16 01:50:24;;;;;;;14.37;9.30;;;;;;;33.64;50.35;100985.97;5093223;28;20420;-74
2022/06/16 01:53:16;;;;;;;14.87;10.33;;;;;;;33.65;50.34;100983.00;5094896;28;20520;-73
2022/06/16 01:55:51;;;;;;;16.57;9.10;;;;;;;33.83;49.84;100981.59;5079036;28;20968;-73
2022/06/16 01:58:31;;;;;;;11.53;9.10;;;;;;;33.29;50.83;100982.22;5093029;28;20456;-73
2022/06/16 02:01:00;;;;;;;18.87;11.70;;;;;;;32.97;51.86;100970.97;5080576;28;20793;-73
2022/06/16 02:03:35;;;;;;;22.37;11.30;;;;;;;33.21;51.46;100976.56;5093089;28;20425;-73
2022/06/16 02:06:23;;;;;;;18.40;12.30;;;;;;;33.32;51.08;100978.97;5092594;28;20472;-73
2022/06/16 02:08:56;;;;;;;14.27;10.27;;;;;;;33.48;50.87;100989.75;5092722;28;20464;-73
2022/06/16 02:11:32;;;;;;;15.67;11.70;;;;;;;33.32;51.01;100992.44;5092792;28;20487;-73
2022/06/16 02:14:16;;;;;;;13.53;9.80;;;;;;;33.49;50.68;100991.38;5094016;28;20462;-73
2022/06/16 02:16:44;;;;;;;18.17;9.37;;;;;;;33.41;51.03;100982.78;5096583;28;20431;-73
2022/06/16 02:19:15;;;;;;;16.40;10.57;;;;;;;33.46;50.43;100986.53;5092468;28;20823;-73
2022/06/16 02:21:46;;;;;;;20.10;9.73;;;;;;;33.37;51.05;100987.03;5078560;28;20867;-73
2022/06/16 02:24:15;;;;;;;23.63;13.30;;;;;;;33.55;50.34;100985.69;5092504;28;20494;-73
2022/06/16 02:26:42;;;;;;;17.20;10.47;;;;;;;33.37;51.05;100978.97;5092486;28;20501;-73
2022/06/16 02:29:33;;;;;;;14.37;10.30;;;;;;;33.42;50.74;100972.81;5092347;28;20452;-72
2022/06/16 02:32:02;;;;;;;17.80;11.00;;;;;;;33.11;50.86;100972.84;5092567;28;20429;-73
2022/06/16 02:34:52;;;;;;;15.17;9.97;;;;;;;33.18;51.41;100971.75;5093692;28;20494;-73
2022/06/16 02:37:43;;;;;;;16.77;10.70;;;;;;;32.77;52.51;100966.34;5080960;28;20479;-73
2022/06/16 02:40:21;;;;;;;19.97;10.83;;;;;;;33.04;51.76;100961.56;5081016;28;20444;-73
2022/06/16 02:43:21;;;;;;;15.80;9.23;;;;;;;33.25;51.05;100965.03;5093968;28;20421;-72
2022/06/16 02:45:58;;;;;;;13.70;10.23;;;;;;;33.31;50.84;100965.81;5080638;28;20467;-73
2022/06/16 02:48:44;;;;;;;15.03;8.97;;;;;;;33.57;49.97;100967.41;5091894;28;20859;-72
2022/06/16 02:51:16;;;;;;;14.70;8.63;;;;;;;33.38;50.06;100980.59;5093242;28;20510;-71
2022/06/16 02:54:09;;;;;;;13.33;8.00;;;;;;;33.56;50.14;100981.13;5091852;28;20461;-73
2022/06/16 02:56:48;;;;;;;16.67;10.50;;;;;;;33.88;49.18;100984.28;5093435;28;20428;-74
2022/06/16 02:59:20;;;;;;;16.23;8.73;;;;;;;33.76;49.30;100986.47;5080510;28;20441;-73
2022/06/16 03:01:48;;;;;;;14.70;8.47;;;;;;;33.73;48.86;100989.69;5091935;28;20425;-72
2022/06/16 03:04:17;;;;;;;13.37;7.40;;;;;;;33.67;49.42;100990.78;5091995;28;20474;-73
2022/06/16 03:06:45;;;;;;;11.90;8.37;;;;;;;33.14;50.58;100988.41;5092849;28;20468;-73
2022/06/16 03:09:13;;;;;;;14.20;8.27;;;;;;;33.22;50.58;100988.97;5091624;28;20478;-73
2022/06/16 03:11:39;;;;;;;18.03;8.43;;;;;;;33.29;50.45;100992.97;5091745;28;20424;-72
2022/06/16 03:14:06;;;;;;;14.03;8.10;;;;;;;33.35;50.35;100983.84;5078006;28;20457;-73
2022/06/16 03:16:33;;;;;;;12.77;8.97;;;;;;;33.26;50.51;100981.94;5092462;28;20419;-72
2022/06/16 03:18:59;;;;;;;13.60;8.40;;;;;;;33.31;50.27;100980.06;5091587;28;20470;-72
2022/06/16 03:21:25;;;;;;;12.63;8.90;;;;;;;33.41;50.31;100981.97;5091796;28;20486;-73
2022/06/16 03:23:51;;;;;;;16.43;11.43;;;;;;;33.45;50.37;100988.41;5092946;28;20449;-74
2022/06/16 03:26:17;;;;;;;14.50;9.47;;;;;;;33.63;49.83;100993.19;5091320;28;21036;-74
2022/06/16 03:28:44;;;;;;;19.37;9.90;;;;;;;33.60;49.52;100993.75;5091524;28;20435;-73
2022/06/16 03:31:10;;;;;;;16.00;9.17;;;;;;;33.46;50.00;100991.94;5091268;28;20421;-71
2022/06/16 03:33:36;;;;;;;16.20;10.27;;;;;;;33.50;49.91;100996.47;5077216;28;20425;-73
2022/06/16 03:36:02;;;;;;;11.60;7.90;;;;;;;33.33;50.50;100980.63;5091334;28;20448;-73
2022/06/16 03:41:03;;;;;;;13.20;9.13;;;;;;;33.31;50.52;100984.63;5092706;28;20439;-73
2022/06/16 03:43:29;;;;;;;14.93;10.43;;;;;;;33.61;49.97;100989.19;5091032;28;20443;-73
2022/06/16 03:45:55;;;;;;;14.97;8.87;;;;;;;33.39;50.15;100976.88;5091359;28;20603;-73
2022/06/16 03:48:21;;;;;;;16.10;9.03;;;;;;;32.97;51.29;100974.47;5091122;28;20543;-72
2022/06/16 03:50:47;;;;;;;14.83;8.00;;;;;;;33.09;51.03;100979.56;5091476;28;20872;-73
2022/06/16 03:53:13;;;;;;;14.70;9.17;;;;;;;33.12;51.12;100987.06;5091314;28;20964;-73
2022/06/16 03:55:40;;;;;;;14.90;9.07;;;;;;;33.02;51.68;100982.50;5091164;28;20460;-73
2022/06/16 03:58:06;;;;;;;18.33;9.57;;;;;;;32.75;51.71;100976.56;5092588;28;20463;-74
2022/06/16 04:00:33;;;;;;;13.43;8.43;;;;;;;33.18;51.27;100979.81;5090980;28;20416;-73
2022/06/16 04:05:43;;;;;;;19.70;9.30;;;;;;;33.16;50.94;100982.78;5091935;28;20455;-74
2022/06/16 04:08:12;;;;;;;15.20;8.27;;;;;;;33.23;50.86;100972.56;5090811;28;20449;-73
2022/06/16 04:10:39;;;;;;;18.30;9.87;;;;;;;33.48;50.60;100970.94;5074304;28;20570;-74
2022/06/16 04:13:05;;;;;;;17.63;10.27;;;;;;;33.38;50.25;100977.09;5092100;28;20484;-74
2022/06/16 04:15:32;;;;;;;19.63;10.53;;;;;;;33.04;51.32;100984.94;5090877;28;20461;-73
2022/06/16 04:17:58;;;;;;;18.80;10.70;;;;;;;33.23;50.77;100983.31;5090575;28;20448;-73
2022/06/16 04:20:25;;;;;;;14.80;8.80;;;;;;;33.56;50.75;100989.19;5090889;28;20432;-73
2022/06/16 04:22:51;;;;;;;19.27;12.07;;;;;;;33.49;50.56;100988.69;5092212;28;20439;-73
2022/06/16 04:25:20;;;;;;;15.17;10.47;;;;;;;33.77;49.68;100988.06;5090766;28;20455;-73
2022/06/16 04:27:47;;;;;;;14.60;10.77;;;;;;;33.60;49.85;100993.75;5090697;28;20783;-73
2022/06/16 04:30:15;;;;;;;12.40;9.60;;;;;;;33.66;49.61;100991.88;5092378;28;20800;-73
2022/06/16 04:32:43;;;;;;;22.40;10.83;;;;;;;33.41;50.16;100990.84;5090729;28;20445;-73
2022/06/16 04:35:10;;;;;;;18.07;10.50;;;;;;;33.67;49.85;101001.53;5090793;28;20514;-74
2022/06/16 04:37:36;;;;;;;17.93;11.20;;;;;;;33.79;49.45;101002.06;5093848;28;20440;-72
2022/06/16 04:40:02;;;;;;;21.10;11.33;;;;;;;33.80;49.21;101002.84;5077285;28;20437;-72
2022/06/16 04:42:28;;;;;;;16.57;10.67;;;;;;;33.86;49.20;100999.88;5094466;28;20489;-72
2022/06/16 04:44:54;;;;;;;17.00;12.13;;;;;;;33.77;49.57;101004.22;5095847;28;20444;-72
2022/06/16 04:47:20;;;;;;;16.43;10.23;;;;;;;33.83;49.23;100994.25;5094609;28;20439;-74
2022/06/16 04:49:48;;;;;;;20.10;12.47;;;;;;;33.67;49.45;100993.47;5094552;28;20424;-74
2022/06/16 04:52:17;;;;;;;18.33;13.10;;;;;;;33.44;50.06;100988.69;5094298;28;20424;-73
2022/06/16 04:54:47;;;;;;;20.90;12.70;;;;;;;33.30;50.35;101002.66;5077494;28;20471;-74
2022/06/16 04:57:14;;;;;;;21.97;12.83;;;;;;;33.38;50.23;101002.09;5077699;28;20435;-73
2022/06/16 04:59:40;;;;;;;19.37;10.60;;;;;;;33.52;50.01;101013.16;5094136;28;20512;-72
2022/06/16 05:02:07;;;;;;;32.43;13.53;;;;;;;33.48;50.08;101013.97;5092764;28;20485;-72
2022/06/16 05:04:35;;;;;;;20.03;13.97;;;;;;;33.45;50.12;101009.91;5082608;28;20443;-73
2022/06/16 05:07:01;;;;;;;23.43;13.33;;;;;;;33.48;49.87;101020.16;5094058;28;20993;-73
2022/06/16 05:09:28;;;;;;;22.27;14.97;;;;;;;33.45;50.18;101015.28;5095320;28;20421;-73
2022/06/16 05:11:54;;;;;;;20.27;11.37;;;;;;;33.58;50.06;101004.00;5095530;28;20416;-73
2022/06/16 05:14:21;;;;;;;22.20;14.03;;;;;;;33.73;49.58;101016.59;5093774;28;20542;-72
2022/06/16 05:16:48;;;;;;;23.60;15.57;;;;;;;33.68;49.25;101021.97;5094058;28;20421;-72
2022/06/16 05:19:14;;;;;;;22.93;14.03;;;;;;;33.20;50.62;101017.97;5095326;28;20417;-73
2022/06/16 05:21:40;;;;;;;28.13;14.30;;;;;;;33.56;49.75;101022.28;5093715;28;20423;-73
2022/06/16 05:24:08;;;;;;;20.30;13.37;;;;;;;33.79;49.51;101031.66;5093757;28;20421;-73
2022/06/16 05:26:34;;;;;;;30.07;17.17;;;;;;;33.69;49.32;101029.78;5093607;28;20425;-74
2022/06/16 05:29:00;;;;;;;18.80;13.43;;;;;;;33.72;49.64;101035.72;5093779;28;20501;-72
2022/06/16 05:31:26;;;;;;;21.97;15.83;;;;;;;33.22;50.61;101040.84;5094769;28;20432;-72
2022/06/16 05:33:53;;;;;;;25.10;15.43;;;;;;;33.63;49.85;101035.44;5093481;28;20475;-73
2022/06/16 05:36:19;;;;;;;22.63;14.50;;;;;;;33.44;50.22;101050.53;5093350;28;20524;-73
2022/06/16 05:38:45;;;;;;;21.40;14.70;;;;;;;33.14;51.03;101052.13;5095097;28;20421;-72
2022/06/16 05:41:15;;;;;;;19.63;14.13;;;;;;;33.08;51.23;101056.69;5093358;28;20567;-72
2022/06/16 05:43:42;;;;;;;22.20;15.17;;;;;;;33.31;50.52;101065.28;5101314;28;20421;-72
2022/06/16 05:46:19;;;;;;;24.17;17.43;;;;;;;33.52;50.07;101066.94;5092890;28;20932;-72
2022/06/16 05:48:45;;;;;;;20.43;13.30;;;;;;;33.63;49.70;101070.41;5092805;28;20575;-71
2022/06/16 05:51:13;;;;;;;26.40;14.77;;;;;;;33.70;49.11;101073.66;5093179;28;20425;-73
2022/06/16 05:53:40;;;;;;;25.20;15.57;;;;;;;33.60;49.68;101068.28;5094121;28;20412;-72
2022/06/16 05:56:07;;;;;;;21.70;16.03;;;;;;;33.51;49.59;101065.31;5087017;28;20425;-70
2022/06/16 05:58:33;;;;;;;28.07;18.30;;;;;;;33.50;49.77;101065.59;5092880;28;20822;-70
2022/06/16 06:00:59;;;;;;;26.83;16.07;;;;;;;33.47;49.96;101064.25;5086026;28;20509;-73
2022/06/16 06:03:25;;;;;;;23.40;15.10;;;;;;;33.65;49.59;101061.00;5085532;28;20433;-71
2022/06/16 06:05:52;;;;;;;26.63;16.80;;;;;;;33.33;50.01;101058.59;5091376;28;20469;-71
2022/06/16 06:16:39;;;;;;;30.17;21.87;;;;;;;32.89;51.53;101064.44;5092294;28;20817;-71
2022/06/16 06:19:23;;;;;;;33.27;19.67;;;;;;;32.91;51.31;101071.47;5092067;28;20428;-71
2022/06/16 06:22:09;;;;;;;29.50;22.33;;;;;;;33.11;50.99;101072.28;5102362;28;20419;-70
2022/06/16 06:24:43;;;;;;;25.00;18.77;;;;;;;33.37;50.59;101086.53;5091416;28;20425;-69
2022/06/16 06:27:20;;;;;;;26.30;14.97;;;;;;;33.50;50.17;101073.66;5089939;28;20447;-69
2022/06/16 06:29:49;;;;;;;23.57;17.43;;;;;;;33.23;50.46;101079.28;5087465;28;20418;-71
2022/06/16 06:32:20;;;;;;;32.80;18.27;;;;;;;33.29;50.66;101084.41;5089665;28;20445;-71
2022/06/16 06:34:47;;;;;;;30.63;18.37;;;;;;;33.47;50.50;101080.38;5091674;28;21042;-71
2022/06/16 06:37:16;;;;;;;26.03;17.70;;;;;;;33.74;50.02;101088.16;5074725;28;20457;-69
2022/06/16 06:39:43;;;;;;;24.70;15.47;;;;;;;34.00;49.52;101088.13;5085702;28;20432;-71
2022/06/16 06:42:09;;;;;;;22.50;15.90;;;;;;;34.14;48.68;101095.38;5076445;28;20945;-69
2022/06/16 06:44:36;;;;;;;35.67;22.07;;;;;;;34.24;48.36;101097.19;5071716;28;20428;-71
2022/06/16 06:47:02;;;;;;;29.97;17.47;;;;;;;33.77;49.69;101094.88;5090572;28;20425;-71
2022/06/16 06:49:28;;;;;;;27.03;18.23;;;;;;;33.87;49.27;101095.66;5097100;28;20460;-71
2022/06/16 06:51:54;;;;;;;24.70;17.63;;;;;;;33.80;49.50;101103.22;5106910;28;20435;-72
2022/06/16 06:54:21;;;;;;;39.17;20.10;;;;;;;33.96;49.10;101095.16;5107704;28;20459;-71
2022/06/16 06:56:50;;;;;;;40.80;22.40;;;;;;;33.78;49.67;101107.25;5107114;28;20416;-71
2022/06/16 06:59:18;;;;;;;33.17;19.00;;;;;;;33.80;49.60;101113.16;5107857;28;20463;-70
2022/06/16 07:01:50;;;;;;;25.40;18.47;;;;;;;33.88;49.31;101110.75;5110153;28;20416;-71
2022/06/16 07:04:17;;;;;;;22.20;17.03;;;;;;;33.99;49.19;101113.44;5099483;28;20412;-71
2022/06/16 07:06:45;;;;;;;38.83;20.40;;;;;;;33.66;50.18;101116.41;5105951;28;20485;-69
2022/06/16 07:09:12;;;;;;;30.70;22.80;;;;;;;33.79;49.49;101119.63;5109908;28;20419;-71
2022/06/16 07:11:42;;;;;;;29.43;20.33;;;;;;;33.62;50.11;101122.59;5107905;28;20424;-69
2022/06/16 07:14:09;;;;;;;21.63;17.30;;;;;;;33.62;50.34;101128.78;5097349;28;20460;-69
2022/06/16 07:16:36;;;;;;;23.83;18.30;;;;;;;33.79;50.17;101141.97;5091573;28;20413;-71
2022/06/16 07:19:03;;;;;;;32.93;20.10;;;;;;;33.88;49.48;101148.44;5092392;28;20496;-71
2022/06/16 07:21:29;;;;;;;29.13;19.43;;;;;;;34.03;49.26;101153.00;5089181;28;20497;-69
2022/06/16 07:23:56;;;;;;;31.53;22.93;;;;;;;33.51;50.39;101150.56;5093178;28;20470;-69
2022/06/16 07:26:22;;;;;;;27.07;17.27;;;;;;;33.65;50.18;101154.34;5090768;28;20429;-69
2022/06/16 07:28:50;;;;;;;31.90;20.20;;;;;;;33.61;50.43;101155.97;5091072;28;20427;-71
2022/06/16 07:31:16;;;;;;;31.80;20.40;;;;;;;33.94;49.82;101165.38;5090851;28;20482;-69
2022/06/16 07:33:43;;;;;;;25.57;21.27;;;;;;;33.99;49.70;101178.03;5093954;28;20425;-71
2022/06/16 07:36:10;;;;;;;27.73;18.63;;;;;;;33.92;49.68;101186.38;5090968;28;20461;-71
2022/06/16 07:38:37;;;;;;;24.80;18.27;;;;;;;33.81;49.96;101182.03;5090405;28;20429;-71
2022/06/16 07:43:48;;;;;;;25.10;17.07;;;;;;;34.03;49.76;101189.88;5092063;28;20962;-69
2022/06/16 07:46:14;;;;;;;21.90;17.03;;;;;;;34.20;49.22;101195.78;5090214;28;20429;-69
2022/06/16 07:48:40;;;;;;;24.80;16.83;;;;;;;33.85;49.97;101189.31;5090869;28;20424;-69
2022/06/16 07:51:06;;;;;;;25.50;17.67;;;;;;;33.85;50.07;101197.38;5081756;28;20424;-70
2022/06/16 07:53:32;;;;;;;25.83;17.30;;;;;;;34.07;49.69;101199.84;5090860;28;20436;-70
2022/06/16 07:56:00;;;;;;;23.13;18.07;;;;;;;34.16;49.74;101197.41;5085405;28;20440;-70
2022/06/16 07:58:30;;;;;;;22.20;15.80;;;;;;;34.12;49.33;101197.13;5090318;28;20505;-71
2022/06/16 08:00:57;;;;;;;22.60;16.80;;;;;;;34.26;49.75;101193.88;5090553;28;20425;-69
2022/06/16 08:03:26;;;;;;;25.20;17.50;;;;;;;34.19;49.41;101191.44;5087908;28;20515;-69
2022/06/16 08:05:57;;;;;;;23.27;15.67;;;;;;;34.33;49.37;101195.22;5090370;28;20467;-69
2022/06/16 08:08:25;;;;;;;26.00;15.97;;;;;;;34.31;49.45;101191.97;5091154;28;20432;-69
2022/06/16 08:10:52;;;;;;;26.20;18.83;;;;;;;34.32;49.26;101190.91;5097964;28;20428;-69
2022/06/16 08:13:19;;;;;;;30.83;17.00;;;;;;;34.11;49.96;101197.41;5074942;28;20462;-69
2022/06/16 08:15:46;;;;;;;20.27;15.80;;;;;;;34.27;50.04;101201.69;5092013;28;20451;-69
2022/06/16 08:18:14;;;;;;;29.33;16.73;;;;;;;33.87;50.64;101208.69;5094444;28;20822;-69
2022/06/16 08:20:41;;;;;;;19.40;16.90;;;;;;;34.10;50.21;101220.81;5094648;28;20416;-69
2022/06/16 08:23:08;;;;;;;32.73;16.57;;;;;;;34.22;49.75;101226.72;5077196;28;20417;-71
2022/06/16 08:25:34;;;;;;;26.27;14.57;;;;;;;34.13;50.25;101228.38;5096113;28;20431;-71
2022/06/16 08:28:03;;;;;;;20.50;14.40;;;;;;;34.18;49.96;101236.41;5090986;28;21013;-69
2022/06/16 08:30:31;;;;;;;25.87;16.43;;;;;;;33.72;51.07;101242.88;5094860;28;20416;-69
2022/06/16 08:32:58;;;;;;;24.13;16.50;;;;;;;33.79;51.10;101235.34;5100102;28;20416;-69
2022/06/16 08:35:24;;;;;;;24.17;14.73;;;;;;;34.08;50.68;101224.88;5096212;28;20459;-69
2022/06/16 08:37:50;;;;;;;25.13;15.17;;;;;;;34.20;50.30;101225.41;5096433;28;20417;-69
2022/06/16 08:40:18;;;;;;;23.57;15.70;;;;;;;34.34;50.01;101218.34;5094152;28;20421;-69
2022/06/16 08:42:48;;;;;;;24.23;15.13;;;;;;;34.24;50.23;101217.56;5093929;28;20447;-69
2022/06/16 08:45:37;;;;;;;32.33;14.57;;;;;;;34.20;49.76;101220.81;5095889;28;20416;-70
2022/06/16 08:48:15;;;;;;;19.87;13.80;;;;;;;34.26;50.22;101227.00;5104429;28;20455;-71
2022/06/16 08:50:54;;;;;;;18.17;13.40;;;;;;;34.36;50.29;101221.56;5074111;28;20482;-72
2022/06/16 08:53:36;;;;;;;19.97;14.73;;;;;;;34.36;49.99;101224.28;5090099;28;20443;-68
2022/06/16 08:56:08;;;;;;;22.37;15.00;;;;;;;34.34;50.32;101233.72;5095425;28;20452;-70
2022/06/16 08:58:53;;;;;;;26.80;14.70;;;;;;;34.34;50.17;101239.09;5094117;28;20605;-73
2022/06/16 09:01:35;;;;;;;19.37;12.83;;;;;;;33.90;50.57;101240.44;5095574;28;20424;-72
2022/06/16 09:04:10;;;;;;;22.57;11.37;;;;;;;33.88;50.56;101237.22;5095505;28;20436;-71
2022/06/16 09:06:59;;;;;;;22.07;11.63;;;;;;;34.32;50.38;101260.13;5104251;28;20535;-72
2022/06/16 09:12:49;;;;;;;22.60;12.53;;;;;;;34.55;49.15;101267.63;5112348;28;20445;-70
2022/06/16 09:15:22;;;;;;;25.63;12.53;;;;;;;34.54;48.84;101266.03;5109578;28;20475;-71
2022/06/16 09:18:19;;;;;;;16.53;12.00;;;;;;;34.55;49.02;101267.63;5111141;28;20420;-71
2022/06/16 09:20:49;;;;;;;24.07;11.37;;;;;;;34.47;48.32;101260.91;5110153;28;20446;-71
2022/06/16 09:23:30;;;;;;;18.20;11.03;;;;;;;34.59;48.17;101266.00;5108787;28;20936;-71
2022/06/16 09:26:14;;;;;;;17.20;11.30;;;;;;;34.72;47.77;101267.31;5107852;28;20443;-72
2022/06/16 09:28:47;;;;;;;16.40;11.70;;;;;;;34.73;47.75;101255.47;5105607;28;20472;-73
2022/06/16 09:31:23;;;;;;;17.80;10.97;;;;;;;34.61;48.19;101255.75;5112928;28;20424;-72
2022/06/16 09:33:55;;;;;;;19.50;12.77;;;;;;;34.80;48.02;101255.16;5108029;28;20416;-73
2022/06/16 09:36:30;;;;;;;14.40;11.10;;;;;;;34.68;47.34;101244.69;5111214;28;20447;-72
2022/06/16 09:39:43;;;;;;;23.10;10.30;;;;;;;34.24;48.12;101257.94;5108804;28;20511;-72
2022/06/16 09:42:32;;;;;;;21.47;11.50;;;;;;;34.51;47.13;101252.31;5026115;28;20967;-73
2022/06/16 09:45:17;;;;;;;14.77;9.50;;;;;;;34.57;46.98;101257.41;5027777;28;20585;-73
2022/06/16 09:47:55;;;;;;;15.80;10.10;;;;;;;34.51;47.19;101247.72;5094410;28;20903;-72
2022/06/16 09:50:26;;;;;;;15.17;10.77;;;;;;;34.33;47.70;101248.25;5108906;28;20428;-72
2022/06/16 09:53:05;;;;;;;16.10;11.90;;;;;;;34.50;47.45;101251.50;5110326;28;20443;-74
2022/06/16 09:55:37;;;;;;;15.20;9.73;;;;;;;34.67;47.37;101245.78;5108480;28;20460;-74
2022/06/16 09:58:12;;;;;;;15.77;10.57;;;;;;;34.51;47.48;101242.34;5110839;28;20487;-72
2022/06/16 10:00:39;;;;;;;14.50;10.50;;;;;;;34.61;47.30;101238.78;5111083;28;20460;-72
2022/06/16 10:03:38;;;;;;;14.83;11.40;;;;;;;34.79;47.04;101230.09;5111469;28;20522;-73
2022/06/16 10:06:07;;;;;;;22.97;13.07;;;;;;;35.06;46.71;101237.84;5110030;28;20499;-72
2022/06/16 10:08:39;;;;;;;18.73;11.97;;;;;;;35.08;46.13;101251.06;5109599;28;20444;-73
2022/06/16 10:11:34;;;;;;;19.20;13.93;;;;;;;35.09;47.10;101244.56;5107976;28;20797;-73
2022/06/16 10:14:27;;;;;;;17.63;11.60;;;;;;;35.15;46.84;101236.19;5086161;28;20472;-73
2022/06/16 10:17:00;;;;;;;16.50;10.70;;;;;;;35.31;46.10;101231.50;5109791;28;20495;-72
2022/06/16 10:19:30;;;;;;;19.37;11.03;;;;;;;35.42;45.85;101229.53;5106649;28;20787;-73
2022/06/16 10:21:58;;;;;;;16.23;10.80;;;;;;;35.44;46.21;101232.81;5108327;28;20450;-72
2022/06/16 10:24:30;;;;;;;15.73;11.97;;;;;;;35.30;46.42;101224.50;5107059;28;20949;-70
2022/06/16 10:26:58;;;;;;;20.50;13.60;;;;;;;35.31;46.23;101217.22;5109528;28;20423;-72
2022/06/16 10:29:35;;;;;;;18.57;12.67;;;;;;;35.32;46.09;101229.63;5103489;28;20488;-72
2022/06/16 10:32:03;;;;;;;16.27;11.83;;;;;;;35.48;46.58;101231.16;5106662;28;20427;-73
2022/06/16 10:34:39;;;;;;;21.30;13.27;;;;;;;35.60;45.80;101233.50;5108198;28;20408;-73
2022/06/16 10:37:14;;;;;;;16.87;11.40;;;;;;;35.43;45.67;101229.31;5107326;28;20447;-71
2022/06/16 10:39:49;;;;;;;21.20;10.37;;;;;;;35.08;46.06;101234.88;5109003;28;20951;-72
2022/06/16 10:42:18;;;;;;;20.10;13.90;;;;;;;35.11;46.21;101231.59;5103508;28;20543;-72
2022/06/16 10:45:06;;;;;;;19.33;11.53;;;;;;;35.21;45.95;101239.66;5109940;28;20452;-73
2022/06/16 10:47:36;;;;;;;19.10;10.33;;;;;;;35.17;46.23;101239.41;5108911;28;20455;-72
2022/06/16 10:50:06;;;;;;;16.00;11.27;;;;;;;35.26;46.19;101231.53;5109253;28;20424;-72
2022/06/16 10:52:38;;;;;;;18.23;11.43;;;;;;;35.37;46.09;101229.59;5108916;28;20444;-72
2022/06/16 10:55:19;;;;;;;16.50;11.73;;;;;;;35.49;46.12;101232.78;5108128;28;20428;-72
2022/06/16 10:57:59;;;;;;;18.57;12.70;;;;;;;35.50;46.06;101232.50;5106751;28;20438;-72
2022/06/16 11:00:27;;;;;;;19.47;12.33;;;;;;;35.63;46.01;101231.06;5109255;28;20459;-71
2022/06/16 11:03:04;;;;;;;19.83;14.03;;;;;;;35.60;46.08;101228.09;5110810;28;20524;-73
2022/06/16 11:05:36;;;;;;;22.73;13.20;;;;;;;35.22;45.91;101236.66;5098742;28;20483;-71
2022/06/16 11:08:23;;;;;;;17.53;11.63;;;;;;;35.28;46.38;101232.06;5109966;28;20423;-74
2022/06/16 11:10:55;;;;;;;16.27;11.80;;;;;;;35.56;46.15;101233.28;5108798;28;20412;-73
2022/06/16 11:13:31;;;;;;;27.77;14.27;;;;;;;35.70;46.33;101233.44;5107050;28;20440;-73
2022/06/16 11:15:58;;;;;;;23.27;13.90;;;;;;;35.79;45.68;101232.56;5109434;28;20494;-73
2022/06/16 11:18:28;;;;;;;26.03;14.50;;;;;;;35.87;45.79;101231.13;5109040;28;20420;-72
2022/06/16 11:21:00;;;;;;;25.83;14.87;;;;;;;35.96;44.76;101225.94;5109241;28;20418;-73
2022/06/16 11:23:33;;;;;;;21.43;12.83;;;;;;;35.95;45.28;101235.94;5104991;28;20420;-72
2022/06/16 11:26:06;;;;;;;20.87;12.57;;;;;;;35.92;45.49;101220.34;5097615;28;20456;-72
2022/06/16 11:28:42;;;;;;;18.00;12.63;;;;;;;35.98;44.97;101227.28;5072507;28;20422;-72
2022/06/16 11:31:08;;;;;;;20.43;12.53;;;;;;;35.95;44.86;101227.84;5091448;28;20515;-72
2022/06/16 11:36:48;;;;;;;30.47;13.77;;;;;;;35.94;45.19;101242.44;5092588;28;20420;-82
2022/06/16 11:39:47;;;;;;;25.60;13.73;;;;;;;35.90;45.17;101235.16;5074477;28;20432;-82
2022/06/16 11:42:19;;;;;;;21.47;13.13;;;;;;;35.91;45.42;101234.91;5105966;28;20454;-71
2022/06/16 11:44:54;;;;;;;24.53;13.53;;;;;;;36.00;45.00;101237.81;5105017;28;20485;-75
2022/06/16 11:47:22;;;;;;;25.70;14.37;;;;;;;35.98;45.35;101232.69;5085149;28;20806;-75
2022/06/16 11:49:58;;;;;;;27.57;12.47;;;;;;;35.99;44.49;101228.91;5104362;28;20959;-75
2022/06/16 11:52:58;;;;;;;22.07;12.83;;;;;;;35.99;44.31;101226.19;5084696;28;20421;-75
2022/06/16 11:55:35;;;;;;;24.90;13.20;;;;;;;36.00;44.37;101230.50;5094511;28;20421;-73
2022/06/16 11:58:25;;;;;;;24.10;15.10;;;;;;;35.97;44.92;101225.69;5077529;28;20456;-71
2022/06/16 12:00:59;;;;;;;17.80;12.80;;;;;;;35.93;45.12;101221.94;5101642;28;20444;-72
2022/06/16 12:03:56;;;;;;;16.83;12.90;;;;;;;35.96;45.68;101232.16;5090894;28;20445;-71